Aviation Digital Data Service (ADDS)

Output produced by TAFs form (0748 UTC 25 March 2017)
found at http://www.aviationweather.gov/adds/tafs/
 
METAR text: RJOA 250700Z 14006KT 100V190 9999 FEW030 BKN110 BKN/// 08/M03 Q1016
Conditions at: RJOA (NEW HIROSHIMA , JP) observed 0700 UTC 25 March 2017
Temperature: 8.0°C (46°F)
Dewpoint: -3.0°C (27°F) [RH = 46%]
Pressure (altimeter): 30.00 inches Hg (1016.0 mb)
Winds: from the SE (140 degrees) at 7 MPH (6 knots; 3.1 m/s)
Visibility: 6 or more miles (10+ km)
Ceiling: 11000 feet AGL
Clouds: few clouds at 3000 feet AGL
broken clouds at 11000 feet AGL
Weather: no significant weather observed at this time

Forecast for: RJOA (NEW HIROSHIMA , JP)
Text: TAF RJOA 250505Z 2506/2612 13004KT 9999 FEW035
Forecast period: 0600 UTC 25 March 2017 to 1200 UTC 26 March 2017
Forecast type: FROM: standard forecast or significant change
Winds: from the SE (130 degrees) at 5 MPH (4 knots; 2.1 m/s)
Visibility: 6 or more miles (10+ km)
Clouds: few clouds at 3500 feet AGL
Weather: no significant weather forecast for this period